Time;durP1;ratioP1;P1;durP2;ratioP2;P2;SDS_P1;SDS_P2;PMS_P1;PMS_P2;Temp;Humidity;BMP_temperature;BMP_pressure;BME280_temperature;BME280_humidity;BME280_pressure;Samples;Min_cycle;Max_cycle;Signal;HPM_P1;HPM_P2
2022/09/10 00:01:39;;;;;;;0.90;0.90;;;26.40;63.20;;;;;;5052271;28;20459;-72
2022/09/10 00:04:11;;;;;;;0.90;0.83;;;26.40;62.90;;;;;;5051336;28;20492;-72
2022/09/10 00:06:39;;;;;;;0.70;0.70;;;26.30;63.10;;;;;;5051752;28;20464;-72
2022/09/10 00:09:09;;;;;;;0.90;0.80;;;26.30;63.20;;;;;;5052887;28;20446;-76
2022/09/10 00:11:39;;;;;;;1.47;0.87;;;26.30;63.30;;;;;;5037342;28;20947;-72
2022/09/10 00:14:14;;;;;;;0.80;0.80;;;26.30;63.30;;;;;;5051848;28;20462;-72
2022/09/10 00:16:42;;;;;;;0.80;0.80;;;26.30;63.30;;;;;;5052819;28;20506;-72
2022/09/10 00:19:10;;;;;;;1.03;0.87;;;26.30;63.30;;;;;;5051907;28;20460;-72
2022/09/10 00:21:38;;;;;;;0.80;0.80;;;26.30;63.30;;;;;;5053124;28;20451;-73
2022/09/10 00:24:07;;;;;;;0.80;0.80;;;26.30;63.20;;;;;;5052157;28;20473;-72
2022/09/10 00:26:38;;;;;;;1.87;0.80;;;26.30;63.20;;;;;;5045333;28;20486;-74
2022/09/10 00:29:09;;;;;;;0.70;0.70;;;26.30;63.40;;;;;;5049563;28;20972;-72
2022/09/10 00:31:39;;;;;;;0.60;0.60;;;26.30;63.40;;;;;;5051488;28;20953;-72
2022/09/10 00:34:07;;;;;;;0.83;0.70;;;26.30;63.50;;;;;;5052193;28;20468;-73
2022/09/10 00:36:38;;;;;;;0.80;0.70;;;26.30;63.10;;;;;;5052700;28;20448;-72
2022/09/10 00:39:10;;;;;;;0.77;0.70;;;26.20;63.00;;;;;;5053078;28;20439;-72
2022/09/10 00:41:40;;;;;;;1.00;0.80;;;26.20;63.20;;;;;;5040223;28;20477;-73
2022/09/10 00:44:47;;;;;;;1.50;0.90;;;26.20;63.40;;;;;;5050442;28;20967;-73
2022/09/10 00:47:21;;;;;;;1.20;1.00;;;26.20;63.50;;;;;;5051211;28;20469;-73
2022/09/10 00:49:53;;;;;;;1.07;0.60;;;26.20;63.60;;;;;;5052392;28;20455;-72
2022/09/10 00:52:21;;;;;;;0.60;0.60;;;26.20;63.50;;;;;;5052450;28;20438;-72
2022/09/10 00:54:50;;;;;;;1.07;0.80;;;26.20;63.50;;;;;;5052187;28;20471;-72
2022/09/10 00:57:22;;;;;;;1.17;0.80;;;26.20;63.60;;;;;;5052168;28;20964;-73
2022/09/10 00:59:53;;;;;;;1.10;0.70;;;26.20;63.60;;;;;;5047814;28;20462;-72
2022/09/10 01:02:23;;;;;;;1.23;0.80;;;26.20;63.40;;;;;;5052510;28;20795;-72
2022/09/10 01:04:53;;;;;;;0.90;0.90;;;26.10;63.70;;;;;;5052339;28;20471;-72
2022/09/10 01:07:22;;;;;;;0.80;0.80;;;26.10;63.60;;;;;;5052372;28;20532;-72
2022/09/10 01:09:51;;;;;;;1.07;0.90;;;26.10;63.70;;;;;;5050568;28;20942;-72
2022/09/10 01:12:39;;;;;;;0.60;0.60;;;26.10;63.70;;;;;;5052970;28;20441;-72
2022/09/10 01:15:14;;;;;;;0.70;0.70;;;26.10;63.70;;;;;;5050782;28;20459;-72
2022/09/10 01:17:58;;;;;;;1.30;0.90;;;26.10;63.60;;;;;;5031532;28;20563;-72
2022/09/10 01:24:26;;;;;;;0.70;0.70;;;26.10;63.40;;;;;;5037249;28;20480;-72
2022/09/10 01:27:46;;;;;;;0.80;0.67;;;26.10;63.80;;;;;;5049163;28;20493;-72
2022/09/10 01:30:20;;;;;;;0.97;0.87;;;26.10;63.90;;;;;;5025553;28;20476;-74
2022/09/10 01:33:00;;;;;;;0.87;0.70;;;26.00;63.60;;;;;;5047326;28;20465;-72
2022/09/10 01:35:37;;;;;;;0.80;0.80;;;26.00;63.80;;;;;;5050627;28;20484;-74
2022/09/10 01:38:11;;;;;;;1.60;0.70;;;26.00;63.80;;;;;;5050405;28;20940;-73
2022/09/10 01:40:40;;;;;;;1.20;0.70;;;26.00;63.90;;;;;;5042921;28;20492;-73
2022/09/10 01:43:11;;;;;;;1.00;0.90;;;26.00;63.90;;;;;;5049878;28;20977;-72
2022/09/10 01:46:03;;;;;;;0.70;0.70;;;26.00;63.90;;;;;;5049804;28;20481;-73
2022/09/10 01:48:52;;;;;;;0.80;0.80;;;26.00;63.80;;;;;;5063169;28;20809;-77
2022/09/10 01:51:33;;;;;;;0.50;0.50;;;26.00;63.90;;;;;;5046996;28;20494;-72
2022/09/10 01:54:17;;;;;;;1.17;0.70;;;26.00;63.90;;;;;;5051981;28;20939;-72
2022/09/10 01:56:54;;;;;;;1.23;0.80;;;26.00;63.90;;;;;;5050407;28;20815;-72
2022/09/10 01:59:33;;;;;;;0.80;0.80;;;26.00;63.90;;;;;;5050039;28;20458;-72
2022/09/10 02:02:10;;;;;;;1.10;0.83;;;26.00;63.40;;;;;;5030572;28;20469;-73
2022/09/10 02:04:39;;;;;;;1.00;0.90;;;26.00;63.40;;;;;;5042261;28;21062;-77
2022/09/10 02:07:09;;;;;;;1.33;0.87;;;26.00;63.40;;;;;;5050883;28;20457;-72
2022/09/10 02:09:37;;;;;;;0.77;0.70;;;25.90;63.60;;;;;;5047068;28;20461;-72
2022/09/10 02:12:08;;;;;;;1.00;0.90;;;25.90;63.50;;;;;;5056433;28;20484;-72
2022/09/10 02:14:55;;;;;;;0.80;0.73;;;25.90;63.90;;;;;;5043887;28;20598;-72
2022/09/10 02:17:43;;;;;;;0.70;0.50;;;25.90;63.90;;;;;;5050951;28;20550;-72
2022/09/10 02:20:13;;;;;;;1.03;0.93;;;25.90;63.80;;;;;;5043339;28;20460;-72
2022/09/10 02:22:47;;;;;;;1.10;0.83;;;25.90;63.90;;;;;;5045149;28;20903;-72
2022/09/10 02:25:16;;;;;;;0.90;0.70;;;25.90;63.60;;;;;;5051161;28;20474;-73
2022/09/10 02:27:44;;;;;;;0.97;0.80;;;25.90;63.60;;;;;;5050088;28;20841;-73
2022/09/10 02:30:13;;;;;;;0.80;0.80;;;25.90;64.00;;;;;;5053623;28;20503;-72
2022/09/10 02:32:42;;;;;;;0.93;0.83;;;25.90;63.80;;;;;;5053889;28;20470;-72
2022/09/10 02:35:14;;;;;;;1.60;0.80;;;25.90;63.40;;;;;;5052356;28;20938;-72
2022/09/10 02:37:45;;;;;;;2.60;1.00;;;25.90;63.30;;;;;;5051610;28;20465;-72
2022/09/10 02:40:13;;;;;;;0.80;0.80;;;25.90;63.50;;;;;;5051125;28;20451;-72
2022/09/10 02:42:45;;;;;;;1.27;0.70;;;25.90;63.50;;;;;;5053640;28;20464;-72
2022/09/10 02:45:17;;;;;;;1.30;0.77;;;25.90;64.00;;;;;;5053115;28;20476;-72
2022/09/10 02:47:47;;;;;;;0.60;0.60;;;25.90;64.10;;;;;;5055150;28;20463;-74
2022/09/10 02:50:16;;;;;;;1.23;0.73;;;25.90;64.10;;;;;;5051530;28;20464;-72
2022/09/10 02:56:48;;;;;;;0.90;0.90;;;25.90;64.00;;;;;;5057356;28;20439;-74
2022/09/10 02:59:17;;;;;;;0.80;0.80;;;25.80;64.10;;;;;;5053499;28;20864;-72
2022/09/10 03:01:47;;;;;;;0.87;0.87;;;25.80;63.90;;;;;;5052740;28;20479;-75
2022/09/10 03:04:17;;;;;;;1.17;0.90;;;25.80;64.10;;;;;;5046770;28;20452;-72
2022/09/10 03:06:48;;;;;;;0.87;0.60;;;25.80;64.10;;;;;;5052721;28;20825;-75
2022/09/10 03:09:17;;;;;;;0.70;0.70;;;25.80;64.10;;;;;;5048417;28;20829;-73
2022/09/10 03:11:47;;;;;;;0.87;0.70;;;25.80;63.80;;;;;;5047388;28;20545;-72
2022/09/10 03:14:19;;;;;;;1.07;1.00;;;25.80;64.10;;;;;;5054291;28;20458;-72
2022/09/10 03:16:47;;;;;;;0.80;0.80;;;25.80;63.80;;;;;;5053138;28;20869;-73
2022/09/10 03:19:17;;;;;;;0.60;0.60;;;25.80;64.00;;;;;;5054647;28;21162;-72
2022/09/10 03:21:46;;;;;;;0.97;0.60;;;25.80;64.00;;;;;;5052780;28;20459;-72
2022/09/10 03:24:14;;;;;;;0.73;0.70;;;25.80;63.90;;;;;;5053639;28;20461;-72
2022/09/10 03:26:45;;;;;;;1.13;1.13;;;25.80;63.90;;;;;;5051770;28;20581;-72
2022/09/10 03:29:16;;;;;;;1.33;0.70;;;25.80;63.80;;;;;;5051939;28;20460;-72
2022/09/10 03:31:45;;;;;;;0.73;0.60;;;25.80;63.70;;;;;;5051956;28;20468;-73
2022/09/10 03:34:17;;;;;;;0.93;0.80;;;25.80;63.90;;;;;;5053114;28;20460;-72
2022/09/10 03:36:47;;;;;;;1.33;0.50;;;25.80;64.10;;;;;;5037667;28;21030;-72
2022/09/10 03:39:17;;;;;;;0.60;0.60;;;25.80;64.00;;;;;;5052865;28;20449;-72
2022/09/10 03:41:45;;;;;;;1.03;0.80;;;25.80;63.90;;;;;;5046783;28;20533;-72
2022/09/10 03:44:16;;;;;;;1.47;0.70;;;25.80;64.00;;;;;;5049268;28;20489;-72
2022/09/10 03:46:44;;;;;;;0.93;0.73;;;25.70;64.10;;;;;;5032583;28;20591;-72
2022/09/10 03:49:17;;;;;;;1.10;1.03;;;25.70;64.00;;;;;;5051994;28;20468;-75
2022/09/10 03:51:47;;;;;;;0.80;0.77;;;25.70;64.10;;;;;;5052393;28;20464;-72
2022/09/10 03:54:15;;;;;;;1.00;0.70;;;25.70;63.80;;;;;;5052268;28;20455;-72
2022/09/10 03:56:44;;;;;;;1.20;1.10;;;25.70;64.10;;;;;;5052681;28;20456;-72
2022/09/10 03:59:13;;;;;;;1.90;0.87;;;25.70;64.00;;;;;;5052336;28;20455;-72
2022/09/10 04:01:42;;;;;;;1.33;0.83;;;25.70;63.90;;;;;;5051831;28;21106;-73
2022/09/10 04:04:11;;;;;;;0.70;0.70;;;25.70;64.10;;;;;;5051575;28;20464;-72
2022/09/10 04:06:41;;;;;;;0.77;0.77;;;25.70;64.20;;;;;;5051335;28;20549;-72
2022/09/10 04:09:10;;;;;;;0.80;0.80;;;25.70;64.10;;;;;;5052413;28;20463;-72
2022/09/10 04:11:38;;;;;;;1.27;0.70;;;25.70;64.20;;;;;;5051263;28;20541;-73
2022/09/10 04:14:07;;;;;;;0.67;0.67;;;25.70;64.10;;;;;;5047367;28;20927;-72
2022/09/10 04:16:38;;;;;;;0.90;0.73;;;25.70;64.20;;;;;;5039787;28;20992;-73
2022/09/10 04:19:08;;;;;;;0.63;0.57;;;25.70;64.10;;;;;;5043422;28;20814;-74
2022/09/10 04:21:37;;;;;;;0.87;0.83;;;25.70;64.20;;;;;;5042075;28;20471;-73
2022/09/10 04:24:08;;;;;;;0.70;0.70;;;25.70;64.20;;;;;;5039037;28;20465;-76
2022/09/10 04:26:36;;;;;;;0.60;0.60;;;25.70;64.20;;;;;;5051347;28;20497;-73
2022/09/10 04:29:06;;;;;;;0.90;0.60;;;25.70;64.20;;;;;;5051736;28;20505;-74
2022/09/10 04:31:34;;;;;;;0.80;0.80;;;25.70;64.20;;;;;;5050185;28;20549;-73
2022/09/10 04:34:10;;;;;;;0.53;0.53;;;25.70;64.30;;;;;;5051202;28;20985;-72
2022/09/10 04:36:38;;;;;;;0.80;0.80;;;25.70;64.30;;;;;;5050646;28;20881;-72
2022/09/10 04:39:09;;;;;;;0.70;0.70;;;25.60;64.30;;;;;;5051150;28;20476;-72
2022/09/10 04:41:38;;;;;;;0.90;0.80;;;25.70;64.30;;;;;;5050959;28;20490;-73
2022/09/10 04:44:07;;;;;;;0.70;0.63;;;25.60;64.30;;;;;;5051330;28;20474;-72
2022/09/10 04:46:35;;;;;;;0.50;0.50;;;25.60;64.10;;;;;;5050978;28;20829;-72
2022/09/10 04:49:08;;;;;;;1.30;0.73;;;25.60;64.20;;;;;;5051375;28;20494;-73
2022/09/10 04:51:37;;;;;;;0.70;0.70;;;25.60;64.40;;;;;;5047374;28;20463;-74
2022/09/10 04:54:05;;;;;;;1.23;0.70;;;25.60;64.30;;;;;;5065209;28;20459;-72
2022/09/10 04:56:38;;;;;;;1.10;0.63;;;25.60;64.40;;;;;;5052377;28;20998;-74
2022/09/10 04:59:06;;;;;;;0.90;0.90;;;25.60;64.40;;;;;;5051086;28;20464;-72
2022/09/10 05:01:36;;;;;;;3.13;2.30;;;25.60;64.40;;;;;;5040115;28;20543;-72
2022/09/10 05:04:05;;;;;;;1.33;0.90;;;25.50;64.00;;;;;;5044870;28;20507;-74
2022/09/10 05:06:36;;;;;;;2.93;1.43;;;25.60;64.40;;;;;;5048356;28;20471;-72
2022/09/10 05:09:07;;;;;;;0.70;0.70;;;25.60;64.40;;;;;;5051663;28;20459;-74
2022/09/10 05:11:36;;;;;;;0.93;0.83;;;25.50;64.30;;;;;;5045097;28;20467;-72
2022/09/10 05:14:06;;;;;;;1.63;0.70;;;25.50;64.30;;;;;;5039888;28;20470;-71
2022/09/10 05:16:35;;;;;;;2.30;1.10;;;25.50;64.30;;;;;;5050626;28;20483;-73
2022/09/10 05:19:03;;;;;;;3.57;1.10;;;25.50;64.40;;;;;;5051360;28;21473;-73
2022/09/10 05:21:35;;;;;;;1.00;0.90;;;25.50;64.40;;;;;;5047722;28;20943;-73
2022/09/10 05:24:04;;;;;;;2.83;1.10;;;25.50;64.50;;;;;;5061336;28;20463;-73
2022/09/10 05:26:33;;;;;;;2.10;1.00;;;25.50;64.40;;;;;;5041544;28;20498;-73
2022/09/10 05:29:01;;;;;;;1.20;1.10;;;25.50;64.50;;;;;;5044924;28;20467;-76
2022/09/10 05:31:30;;;;;;;2.60;1.20;;;25.50;64.30;;;;;;5049985;28;20969;-73
2022/09/10 05:34:00;;;;;;;3.03;1.67;;;25.50;64.50;;;;;;5050939;28;20971;-73
2022/09/10 05:36:30;;;;;;;5.07;1.67;;;25.50;64.40;;;;;;5047419;28;20466;-75
2022/09/10 05:38:59;;;;;;;2.30;1.17;;;25.50;64.80;;;;;;5053047;28;20462;-74
2022/09/10 05:41:30;;;;;;;2.50;1.30;;;25.50;64.40;;;;;;5045011;28;20469;-74
2022/09/10 05:44:00;;;;;;;2.57;1.23;;;25.50;64.50;;;;;;5080927;28;20938;-74
2022/09/10 05:46:30;;;;;;;1.60;1.33;;;25.50;64.40;;;;;;5047802;28;20492;-74
2022/09/10 05:49:02;;;;;;;3.30;1.90;;;25.50;64.40;;;;;;5049705;28;20468;-74
2022/09/10 05:51:30;;;;;;;1.67;1.50;;;25.50;64.50;;;;;;5045479;28;20821;-74
2022/09/10 05:54:03;;;;;;;2.50;1.07;;;25.50;64.60;;;;;;5047433;28;20463;-74
2022/09/10 05:56:33;;;;;;;2.13;1.77;;;25.50;64.40;;;;;;5048041;28;20464;-74
2022/09/10 05:59:03;;;;;;;5.83;2.03;;;25.50;64.40;;;;;;5046010;28;20478;-76
2022/09/10 06:01:34;;;;;;;4.20;2.07;;;25.50;64.40;;;;;;5051954;28;20463;-76
2022/09/10 06:04:05;;;;;;;3.87;2.23;;;25.50;64.40;;;;;;5052129;28;20814;-78
2022/09/10 06:06:34;;;;;;;2.47;1.70;;;25.40;64.50;;;;;;5050995;28;20913;-76
2022/09/10 06:09:07;;;;;;;2.57;1.93;;;25.40;64.60;;;;;;5042715;28;20513;-77
2022/09/10 06:11:53;;;;;;;4.43;1.53;;;25.40;64.50;;;;;;5052264;28;20514;-77
2022/09/10 06:14:23;;;;;;;2.57;1.77;;;25.40;64.60;;;;;;5050803;28;20450;-77
2022/09/10 06:16:54;;;;;;;1.60;1.47;;;25.40;64.50;;;;;;5051408;28;20563;-76
2022/09/10 06:19:23;;;;;;;2.53;1.70;;;25.40;64.70;;;;;;5043527;28;20477;-76
2022/09/10 06:21:52;;;;;;;3.87;2.00;;;25.40;64.70;;;;;;5050695;28;20488;-76
2022/09/10 06:24:21;;;;;;;1.53;1.43;;;25.40;64.40;;;;;;5042451;28;20568;-76
2022/09/10 06:26:51;;;;;;;2.80;1.70;;;25.40;64.40;;;;;;5049797;28;20502;-75
2022/09/10 06:29:19;;;;;;;1.67;1.53;;;25.40;64.60;;;;;;5058199;28;20539;-76
2022/09/10 06:31:48;;;;;;;2.90;1.93;;;25.40;64.60;;;;;;5051162;28;20465;-76
2022/09/10 06:34:18;;;;;;;2.20;1.53;;;25.40;64.50;;;;;;5051608;28;20461;-76
2022/09/10 06:36:48;;;;;;;3.17;1.80;;;25.40;64.60;;;;;;5049110;28;20502;-75
2022/09/10 06:39:17;;;;;;;1.77;1.67;;;25.40;64.60;;;;;;5048564;28;20479;-75
2022/09/10 06:41:49;;;;;;;4.40;1.30;;;25.40;64.30;;;;;;5052699;28;20466;-76
2022/09/10 06:44:35;;;;;;;3.00;2.17;;;25.40;64.50;;;;;;5047675;28;20442;-75
2022/09/10 06:47:13;;;;;;;1.43;1.33;;;25.40;64.40;;;;;;5051625;28;20475;-76
2022/09/10 06:50:04;;;;;;;4.20;2.30;;;25.40;64.60;;;;;;5049651;28;20464;-75
2022/09/10 06:52:36;;;;;;;9.67;2.33;;;25.40;64.50;;;;;;5047296;28;20484;-75
2022/09/10 06:55:10;;;;;;;6.77;2.70;;;25.40;64.60;;;;;;5042112;28;20542;-76
2022/09/10 06:57:42;;;;;;;6.80;2.60;;;25.50;64.50;;;;;;5051594;28;20456;-75
2022/09/10 07:00:13;;;;;;;8.60;3.03;;;25.50;64.40;;;;;;5049004;28;21056;-75
2022/09/10 07:02:44;;;;;;;9.60;3.10;;;25.50;64.50;;;;;;5049286;28;20491;-75
2022/09/10 07:05:14;;;;;;;7.00;2.70;;;25.50;64.40;;;;;;5041384;28;20459;-75
2022/09/10 07:07:43;;;;;;;11.43;2.80;;;25.50;64.40;;;;;;5053138;28;20488;-75
2022/09/10 07:10:11;;;;;;;7.27;2.70;;;25.50;64.40;;;;;;5054522;28;20863;-75
2022/09/10 07:12:39;;;;;;;3.23;1.97;;;25.50;64.30;;;;;;5052383;28;20461;-76
2022/09/10 07:15:10;;;;;;;4.17;3.10;;;25.50;64.30;;;;;;5064447;28;20509;-75
2022/09/10 07:17:39;;;;;;;4.63;2.50;;;25.50;64.20;;;;;;5065986;28;21042;-75
2022/09/10 07:20:09;;;;;;;4.20;2.13;;;25.40;64.30;;;;;;5029812;28;20456;-75
2022/09/10 07:22:46;;;;;;;6.40;1.93;;;25.40;64.50;;;;;;5065438;28;20491;-76
2022/09/10 07:25:15;;;;;;;5.40;2.17;;;25.40;64.40;;;;;;5052832;28;20485;-75
2022/09/10 07:27:53;;;;;;;3.10;1.80;;;25.40;64.50;;;;;;5052264;28;20485;-75
2022/09/10 07:30:23;;;;;;;3.50;2.27;;;25.50;64.50;;;;;;5052445;28;20533;-76
2022/09/10 07:32:52;;;;;;;4.90;2.37;;;25.40;64.40;;;;;;5052957;28;20531;-75
2022/09/10 07:35:25;;;;;;;2.80;1.80;;;25.40;64.60;;;;;;5031913;28;20540;-75
2022/09/10 07:37:55;;;;;;;1.83;1.70;;;25.40;64.70;;;;;;5043534;28;20463;-75
2022/09/10 07:40:26;;;;;;;2.53;1.80;;;25.40;64.30;;;;;;5049624;28;20457;-75
2022/09/10 07:42:55;;;;;;;3.07;1.73;;;25.40;64.70;;;;;;5033713;28;20457;-74
2022/09/10 07:45:24;;;;;;;5.43;2.10;;;25.40;64.30;;;;;;5054009;28;20454;-75
2022/09/10 07:47:53;;;;;;;4.10;1.90;;;25.40;64.40;;;;;;5052976;28;20507;-75
2022/09/10 07:50:21;;;;;;;3.33;1.80;;;25.40;64.20;;;;;;5052010;28;20469;-75
2022/09/10 07:52:52;;;;;;;2.60;1.80;;;25.40;64.40;;;;;;5052477;28;20805;-75
2022/09/10 07:55:24;;;;;;;2.83;1.60;;;25.40;64.80;;;;;;5051927;28;20474;-75
2022/09/10 07:57:54;;;;;;;3.60;1.60;;;25.50;64.40;;;;;;5052512;28;20849;-74
2022/09/10 08:00:28;;;;;;;2.33;1.70;;;25.50;64.20;;;;;;5051697;28;20457;-75
2022/09/10 08:03:01;;;;;;;3.80;2.07;;;25.50;64.60;;;;;;5051896;28;20471;-75
2022/09/10 08:05:30;;;;;;;1.77;1.20;;;25.50;64.20;;;;;;5051152;28;20458;-75
2022/09/10 08:08:00;;;;;;;1.90;1.33;;;25.50;64.20;;;;;;5052603;28;20489;-75
2022/09/10 08:10:30;;;;;;;2.03;1.50;;;25.50;64.20;;;;;;5052141;28;20475;-75
2022/09/10 08:12:59;;;;;;;2.33;1.27;;;25.60;64.30;;;;;;5052071;28;20532;-76
2022/09/10 08:15:27;;;;;;;2.40;2.00;;;25.60;64.10;;;;;;5051631;28;20969;-75
2022/09/10 08:17:59;;;;;;;1.37;1.07;;;25.50;64.00;;;;;;5052123;28;20486;-75
2022/09/10 08:20:28;;;;;;;1.27;1.00;;;25.50;64.10;;;;;;5050717;28;20461;-75
2022/09/10 08:22:58;;;;;;;1.20;1.10;;;25.60;64.30;;;;;;5051823;28;20469;-75
2022/09/10 08:25:26;;;;;;;1.57;1.47;;;25.60;63.90;;;;;;5051225;28;20506;-75
2022/09/10 08:27:57;;;;;;;3.60;1.73;;;25.60;64.00;;;;;;5046488;28;20491;-75
2022/09/10 08:30:25;;;;;;;1.50;1.20;;;25.60;63.90;;;;;;5051307;28;20464;-75
2022/09/10 08:32:55;;;;;;;2.33;1.40;;;25.60;64.10;;;;;;5051846;28;20522;-75
2022/09/10 08:35:23;;;;;;;1.30;1.10;;;25.60;63.70;;;;;;5050739;28;20458;-74
2022/09/10 08:37:51;;;;;;;1.13;0.90;;;25.60;63.80;;;;;;5051778;28;20879;-75
2022/09/10 08:40:22;;;;;;;3.07;1.10;;;25.60;63.70;;;;;;5048206;28;20461;-75
2022/09/10 08:42:52;;;;;;;0.80;0.80;;;25.60;64.00;;;;;;5031909;28;20460;-75
2022/09/10 08:45:28;;;;;;;1.30;0.90;;;25.60;63.70;;;;;;5065131;28;20456;-75
2022/09/10 08:48:02;;;;;;;1.23;0.90;;;25.60;63.80;;;;;;5031658;28;20507;-74
2022/09/10 08:50:39;;;;;;;2.33;1.13;;;25.60;63.70;;;;;;5044000;28;20565;-75
2022/09/10 08:53:24;;;;;;;2.13;1.13;;;25.60;63.90;;;;;;5048302;28;20914;-74
2022/09/10 08:55:56;;;;;;;1.43;0.90;;;25.60;63.80;;;;;;5084805;28;20470;-75
2022/09/10 08:58:29;;;;;;;1.80;1.03;;;25.60;63.70;;;;;;5051337;28;20466;-75
2022/09/10 09:01:05;;;;;;;1.30;1.20;;;25.60;63.70;;;;;;5052348;28;20489;-75
2022/09/10 09:03:40;;;;;;;0.83;0.70;;;25.60;63.80;;;;;;5045653;28;20585;-75
2022/09/10 09:06:23;;;;;;;2.00;1.43;;;25.60;63.70;;;;;;5044056;28;20870;-75
2022/09/10 09:08:53;;;;;;;0.83;0.83;;;25.60;64.00;;;;;;5043868;28;20478;-75
2022/09/10 09:11:35;;;;;;;0.87;0.87;;;25.70;63.80;;;;;;5048674;28;20556;-75
2022/09/10 09:14:24;;;;;;;1.10;1.00;;;25.70;63.80;;;;;;5049026;28;20501;-74
2022/09/10 09:17:19;;;;;;;0.80;0.77;;;25.70;63.80;;;;;;5059518;28;20548;-75
2022/09/10 09:19:57;;;;;;;1.77;1.57;;;25.70;63.80;;;;;;5050533;28;20934;-75
2022/09/10 09:22:34;;;;;;;0.97;0.90;;;25.70;63.70;;;;;;5049555;28;20972;-76
2022/09/10 09:25:13;;;;;;;0.97;0.77;;;25.80;63.80;;;;;;5041182;28;20520;-75
2022/09/10 09:27:42;;;;;;;1.20;0.97;;;25.80;63.50;;;;;;5044207;28;20532;-75
2022/09/10 09:30:18;;;;;;;0.83;0.83;;;25.80;63.60;;;;;;5049673;28;20474;-75
2022/09/10 09:32:48;;;;;;;1.90;0.80;;;25.90;63.60;;;;;;5050202;28;20452;-76
2022/09/10 09:35:25;;;;;;;0.70;0.60;;;25.90;63.50;;;;;;5049975;28;20478;-75
2022/09/10 09:38:10;;;;;;;1.10;1.00;;;25.90;63.40;;;;;;5050638;28;21022;-75
2022/09/10 09:40:44;;;;;;;1.80;0.70;;;25.90;64.20;;;;;;5050242;28;20464;-74
2022/09/10 09:43:24;;;;;;;1.10;0.77;;;25.90;63.40;;;;;;5050122;28;20864;-75
2022/09/10 09:45:53;;;;;;;0.80;0.80;;;25.90;63.10;;;;;;5051905;28;20435;-75
2022/09/10 09:48:24;;;;;;;0.77;0.77;;;25.90;63.40;;;;;;5050512;28;20502;-75
2022/09/10 09:50:55;;;;;;;0.93;0.90;;;25.90;63.30;;;;;;5049560;28;20472;-75
2022/09/10 09:53:26;;;;;;;0.70;0.70;;;25.90;63.00;;;;;;5051314;28;20813;-75
2022/09/10 09:55:56;;;;;;;0.50;0.50;;;26.00;63.60;;;;;;5076485;28;20460;-74
2022/09/10 09:58:30;;;;;;;1.00;0.67;;;26.00;62.90;;;;;;5050612;28;20466;-75
2022/09/10 10:01:13;;;;;;;0.80;0.73;;;26.00;63.20;;;;;;5052228;28;20447;-74
2022/09/10 10:03:50;;;;;;;0.70;0.70;;;26.00;62.90;;;;;;5051193;28;20459;-75
2022/09/10 10:06:21;;;;;;;0.80;0.80;;;26.00;62.90;;;;;;5050632;28;20515;-75
2022/09/10 10:08:58;;;;;;;0.90;0.90;;;26.00;63.20;;;;;;5052071;28;20470;-75
2022/09/10 10:11:44;;;;;;;1.03;0.80;;;26.10;63.20;;;;;;5051397;28;20878;-74
2022/09/10 10:14:21;;;;;;;1.33;0.90;;;26.10;63.80;;;;;;5050925;28;20497;-75
2022/09/10 10:16:51;;;;;;;2.10;1.00;;;26.10;62.90;;;;;;5052043;28;20480;-75
2022/09/10 10:19:33;;;;;;;0.60;0.60;;;26.10;63.30;;;;;;5051378;28;20453;-75
2022/09/10 10:22:21;;;;;;;0.80;0.77;;;26.10;63.10;;;;;;5051310;28;20438;-75
2022/09/10 10:24:52;;;;;;;1.03;0.80;;;26.00;63.40;;;;;;5051047;28;20467;-75
2022/09/10 10:27:29;;;;;;;0.60;0.50;;;26.00;63.00;;;;;;5051536;28;20486;-75
2022/09/10 10:30:04;;;;;;;0.50;0.50;;;26.00;62.90;;;;;;5051515;28;20468;-75
2022/09/10 10:32:40;;;;;;;0.60;0.50;;;26.00;63.10;;;;;;5051679;28;20473;-74
2022/09/10 10:35:32;;;;;;;0.87;0.87;;;26.00;63.60;;;;;;5049969;28;20549;-75
2022/09/10 10:38:39;;;;;;;0.97;0.87;;;26.00;63.70;;;;;;5051251;28;20430;-75
2022/09/10 10:41:31;;;;;;;0.63;0.63;;;26.10;63.60;;;;;;5050065;28;20492;-75
2022/09/10 10:44:19;;;;;;;0.60;0.60;;;26.20;63.30;;;;;;5039972;28;20455;-75
2022/09/10 10:46:54;;;;;;;0.70;0.70;;;26.30;62.90;;;;;;5050161;28;20458;-75
2022/09/10 10:49:31;;;;;;;1.67;0.70;;;26.40;62.80;;;;;;5051257;28;20479;-75
2022/09/10 10:52:09;;;;;;;1.33;0.70;;;26.50;62.60;;;;;;5054603;28;21278;-75
2022/09/10 10:54:54;;;;;;;0.77;0.77;;;26.50;62.20;;;;;;5067866;28;20458;-75
2022/09/10 10:57:32;;;;;;;1.20;1.10;;;26.50;62.30;;;;;;5071253;28;20450;-75
2022/09/10 11:00:06;;;;;;;0.70;0.70;;;26.40;61.90;;;;;;5051135;28;20928;-75
2022/09/10 11:02:43;;;;;;;1.67;0.90;;;26.40;62.60;;;;;;5055314;28;20482;-74
2022/09/10 11:05:22;;;;;;;0.67;0.67;;;26.40;63.10;;;;;;5053240;28;20490;-75
2022/09/10 11:07:52;;;;;;;0.60;0.60;;;26.30;63.10;;;;;;5055037;28;20437;-75
2022/09/10 11:10:26;;;;;;;1.00;0.80;;;26.30;63.50;;;;;;5053150;28;20483;-75
2022/09/10 11:13:04;;;;;;;0.60;0.60;;;26.30;62.80;;;;;;5054637;28;20420;-75
2022/09/10 11:15:37;;;;;;;3.33;0.80;;;26.20;62.90;;;;;;5053358;28;20461;-75
2022/09/10 11:18:13;;;;;;;2.10;0.90;;;26.10;63.10;;;;;;5054834;28;20462;-76
2022/09/10 11:20:46;;;;;;;0.77;0.50;;;26.10;63.20;;;;;;5033608;28;20425;-75
2022/09/10 11:23:26;;;;;;;1.90;1.43;;;26.00;63.10;;;;;;5035439;28;20814;-75
2022/09/10 11:26:01;;;;;;;1.40;0.80;;;26.00;63.40;;;;;;5053707;28;20460;-75
2022/09/10 11:28:38;;;;;;;0.70;0.53;;;25.90;63.80;;;;;;5054118;28;20420;-75
2022/09/10 11:31:14;;;;;;;1.00;0.90;;;25.90;63.50;;;;;;5049295;28;20475;-75
2022/09/10 11:33:52;;;;;;;0.90;0.63;;;25.90;64.10;;;;;;5040375;28;20543;-75
2022/09/10 11:36:26;;;;;;;1.47;0.80;;;25.90;63.60;;;;;;5053286;28;20456;-74
2022/09/10 11:39:07;;;;;;;1.73;0.90;;;25.80;63.40;;;;;;5053954;28;20440;-74
2022/09/10 11:41:41;;;;;;;0.87;0.80;;;25.80;63.80;;;;;;5046330;28;20484;-74
2022/09/10 11:44:28;;;;;;;0.80;0.80;;;25.80;64.10;;;;;;5052660;28;20460;-75
2022/09/10 11:47:06;;;;;;;0.73;0.50;;;25.80;64.00;;;;;;5046704;28;20566;-74
2022/09/10 11:49:47;;;;;;;0.80;0.80;;;25.80;63.50;;;;;;5053095;28;20478;-75
2022/09/10 11:52:16;;;;;;;1.17;0.70;;;25.80;63.40;;;;;;5053445;28;20854;-75
2022/09/10 11:54:46;;;;;;;1.90;0.60;;;25.80;63.60;;;;;;5052656;28;20822;-75
2022/09/10 11:57:25;;;;;;;0.60;0.60;;;25.80;63.50;;;;;;5053293;28;20452;-75
2022/09/10 12:00:08;;;;;;;1.90;0.70;;;25.70;63.90;;;;;;5047783;28;20466;-76
2022/09/10 12:03:15;;;;;;;0.97;0.77;;;25.70;63.70;;;;;;5052166;28;20447;-75
2022/09/10 12:05:56;;;;;;;0.97;0.50;;;25.70;64.40;;;;;;5051222;28;20466;-75
2022/09/10 12:08:37;;;;;;;1.43;1.00;;;25.70;64.50;;;;;;5043739;28;20769;-75
2022/09/10 12:11:18;;;;;;;1.47;1.00;;;25.90;64.40;;;;;;5050386;28;20954;-74
2022/09/10 12:13:48;;;;;;;1.07;0.80;;;26.50;63.00;;;;;;5050956;28;20457;-75
2022/09/10 12:16:25;;;;;;;0.60;0.60;;;26.90;62.00;;;;;;5047457;28;20537;-75
2022/09/10 12:18:56;;;;;;;1.70;0.67;;;27.10;61.90;;;;;;5052503;28;20451;-74
2022/09/10 12:21:32;;;;;;;0.60;0.60;;;27.00;61.70;;;;;;5051342;28;20438;-74
2022/09/10 12:24:05;;;;;;;0.70;0.60;;;26.80;61.90;;;;;;5051836;28;20463;-75
2022/09/10 12:26:42;;;;;;;1.10;0.50;;;26.70;62.10;;;;;;5052434;28;21005;-74
2022/09/10 12:29:28;;;;;;;0.60;0.60;;;26.50;62.00;;;;;;5053299;28;20442;-75
2022/09/10 12:32:15;;;;;;;0.80;0.80;;;26.40;62.30;;;;;;5052543;28;20459;-74
2022/09/10 12:34:48;;;;;;;0.77;0.77;;;26.30;62.50;;;;;;5045901;28;20893;-75
2022/09/10 12:37:27;;;;;;;1.73;0.90;;;26.30;62.70;;;;;;5052927;28;20508;-76
2022/09/10 12:40:32;;;;;;;1.70;0.93;;;26.20;62.70;;;;;;5052670;28;20445;-75
2022/09/10 12:43:58;;;;;;;2.00;0.60;;;26.20;62.70;;;;;;5045947;28;20445;-75
2022/09/10 12:46:27;;;;;;;1.00;0.50;;;26.10;62.90;;;;;;5010258;28;20458;-75
2022/09/10 12:49:10;;;;;;;0.80;0.70;;;26.10;63.00;;;;;;5010866;28;20459;-74
2022/09/10 12:51:56;;;;;;;0.60;0.60;;;26.00;63.10;;;;;;5026885;28;20496;-74
2022/09/10 12:54:38;;;;;;;1.70;0.67;;;26.00;63.20;;;;;;5052060;28;20450;-75
2022/09/10 12:57:25;;;;;;;0.70;0.70;;;26.00;63.30;;;;;;5052199;28;20820;-74
2022/09/10 13:00:17;;;;;;;0.80;0.80;;;25.90;63.30;;;;;;5052610;28;20432;-74
2022/09/10 13:02:57;;;;;;;0.80;0.60;;;25.90;63.40;;;;;;5052940;28;20968;-74
2022/09/10 13:05:30;;;;;;;2.07;0.83;;;25.90;63.40;;;;;;5051629;28;20829;-74
2022/09/10 13:08:12;;;;;;;0.70;0.70;;;26.00;63.50;;;;;;5043507;28;20440;-74
2022/09/10 13:10:43;;;;;;;0.83;0.83;;;26.00;63.50;;;;;;5032789;28;20479;-74
2022/09/10 13:13:32;;;;;;;0.50;0.50;;;26.20;63.00;;;;;;5050747;28;20460;-75
2022/09/10 13:16:11;;;;;;;1.00;0.80;;;26.50;62.60;;;;;;5051804;28;20444;-74
2022/09/10 13:18:40;;;;;;;1.23;0.80;;;26.70;62.10;;;;;;5052330;28;20460;-74
2022/09/10 13:21:52;;;;;;;1.23;0.80;;;26.80;62.00;;;;;;5050951;28;20936;-74
2022/09/10 13:24:38;;;;;;;0.80;0.70;;;26.80;62.10;;;;;;5046732;28;20599;-75
2022/09/10 13:27:20;;;;;;;0.60;0.60;;;26.70;62.10;;;;;;5052092;28;20484;-75
2022/09/10 13:29:53;;;;;;;0.93;0.70;;;26.60;62.40;;;;;;5052199;28;20769;-75
2022/09/10 13:32:29;;;;;;;1.23;0.70;;;26.60;62.40;;;;;;5045328;28;20487;-75